CMA CGM Herodote — MFEP — position and weather

sailwx.info

Track history (hours):
 
Tides and Currents Weather Stations Pressure Air Temp Water Temp Dewpoint Dewpoint Depression Visibility Wind Speed Wind Dir Waves Ship Positions

CMA CGM Herodote

Last reported at 2014-Sep-30 17:33 UTC. Time now 2014-Oct-01 18:31 UTC.
Position N 38°13' W 009°44'.

Length 170 m; draft 8.1 m.

Type: Ship (hazmat cat A). MMSI: 235051085.

Date/timePositionNaut miles runAvg speedWind from/ knotsBaromVisibWave heightAir tempDewpointWater temp
2014-Sep-30 17:33N 38°13' W 009°44'1918.4
2014-Sep-30 16:33N 37°55' W 009°39'1918.7
2014-Sep-30 15:31N 37°37' W 009°33'1818.4
2014-Sep-30 14:32N 37°19' W 009°27'1818.4
2014-Sep-30 13:33N 37°01' W 009°22'1817.9
2014-Sep-30 12:33N 36°46' W 009°10'2517.9
2014-Sep-30 11:08N 36°37' W 008°41'1017.0
2014-Sep-30 10:33N 36°34' W 008°29'1717.0
2014-Sep-30 09:33N 36°29' W 008°09'134 8.3
2014-Sep-29 17:28N 36°08' W 005°25'5 5.3
2014-Sep-29 16:33N 36°04' W 005°22'  
Track history (hours):
 
Tides and Currents Weather Stations Pressure Air Temp Water Temp Dewpoint Dewpoint Depression Visibility Wind Speed Wind Dir Waves Ship Positions

CMA CGM Herodote

Last reported at 2014-Sep-30 17:33 UTC. Time now 2014-Oct-01 18:31 UTC.
Position N 38°13' W 009°44'.

Length 170 m; draft 8.1 m.

Type: Ship (hazmat cat A). MMSI: 235051085.

Date/timePositionNaut miles runAvg speedWind from/ knotsBaromVisibWave heightAir tempDewpointWater temp
2014-Sep-30 17:33N 38°13' W 009°44'1918.4
2014-Sep-30 16:33N 37°55' W 009°39'1918.7
2014-Sep-30 15:31N 37°37' W 009°33'1818.4
2014-Sep-30 14:32N 37°19' W 009°27'1818.4
2014-Sep-30 13:33N 37°01' W 009°22'1817.9
2014-Sep-30 12:33N 36°46' W 009°10'2517.9
2014-Sep-30 11:08N 36°37' W 008°41'1017.0
2014-Sep-30 10:33N 36°34' W 008°29'1717.0
2014-Sep-30 09:33N 36°29' W 008°09'134 8.3
2014-Sep-29 17:28N 36°08' W 005°25'5 5.3
2014-Sep-29 16:33N 36°04' W 005°22'  

Dump ship's entire track history